sensor_id;sensor_type;location;lat;lon;timestamp;P1;durP1;ratioP1;P2;durP2;ratioP2
980;SDS011;479;53.514;9.994;2024-03-02T00:00:48;20.53;;;11.03;;
980;SDS011;479;53.514;9.994;2024-03-02T00:03:17;17.67;;;11.50;;
980;SDS011;479;53.514;9.994;2024-03-02T00:05:44;20.43;;;11.00;;
980;SDS011;479;53.514;9.994;2024-03-02T00:08:15;15.23;;;9.77;;
980;SDS011;479;53.514;9.994;2024-03-02T00:10:48;17.10;;;10.23;;
980;SDS011;479;53.514;9.994;2024-03-02T00:13:15;19.37;;;12.23;;
980;SDS011;479;53.514;9.994;2024-03-02T00:15:45;21.30;;;12.80;;
980;SDS011;479;53.514;9.994;2024-03-02T00:18:13;19.83;;;10.93;;
980;SDS011;479;53.514;9.994;2024-03-02T00:20:47;14.93;;;10.90;;
980;SDS011;479;53.514;9.994;2024-03-02T00:23:14;17.30;;;10.17;;
980;SDS011;479;53.514;9.994;2024-03-02T00:25:43;18.10;;;10.30;;
980;SDS011;479;53.514;9.994;2024-03-02T00:28:13;20.77;;;11.97;;
980;SDS011;479;53.514;9.994;2024-03-02T00:30:46;15.10;;;10.20;;
980;SDS011;479;53.514;9.994;2024-03-02T00:33:18;19.23;;;12.13;;
980;SDS011;479;53.514;9.994;2024-03-02T00:35:47;16.27;;;11.23;;
980;SDS011;479;53.514;9.994;2024-03-02T00:38:14;20.23;;;11.70;;
980;SDS011;479;53.514;9.994;2024-03-02T00:40:42;20.57;;;12.67;;
980;SDS011;479;53.514;9.994;2024-03-02T00:43:11;16.77;;;11.23;;
980;SDS011;479;53.514;9.994;2024-03-02T00:46:00;23.17;;;12.57;;
980;SDS011;479;53.514;9.994;2024-03-02T00:48:27;30.83;;;11.77;;
980;SDS011;479;53.514;9.994;2024-03-02T00:50:58;18.20;;;11.50;;
980;SDS011;479;53.514;9.994;2024-03-02T00:53:26;20.67;;;11.30;;
980;SDS011;479;53.514;9.994;2024-03-02T00:55:53;25.20;;;14.37;;
980;SDS011;479;53.514;9.994;2024-03-02T00:58:20;23.83;;;13.57;;
980;SDS011;479;53.514;9.994;2024-03-02T01:00:46;17.70;;;11.90;;
980;SDS011;479;53.514;9.994;2024-03-02T01:03:13;22.80;;;13.97;;
980;SDS011;479;53.514;9.994;2024-03-02T01:05:41;19.10;;;11.47;;
980;SDS011;479;53.514;9.994;2024-03-02T01:08:10;25.83;;;13.97;;
980;SDS011;479;53.514;9.994;2024-03-02T01:10:37;20.87;;;12.40;;
980;SDS011;479;53.514;9.994;2024-03-02T01:13:04;20.33;;;12.80;;
980;SDS011;479;53.514;9.994;2024-03-02T01:15:31;24.40;;;15.40;;
980;SDS011;479;53.514;9.994;2024-03-02T01:17:58;25.83;;;14.33;;
980;SDS011;479;53.514;9.994;2024-03-02T01:20:25;25.60;;;13.97;;
980;SDS011;479;53.514;9.994;2024-03-02T01:22:52;26.10;;;12.33;;
980;SDS011;479;53.514;9.994;2024-03-02T01:25:20;21.07;;;13.47;;
980;SDS011;479;53.514;9.994;2024-03-02T01:27:47;25.47;;;14.57;;
980;SDS011;479;53.514;9.994;2024-03-02T01:30:14;24.53;;;13.53;;
980;SDS011;479;53.514;9.994;2024-03-02T01:32:41;26.70;;;15.30;;
980;SDS011;479;53.514;9.994;2024-03-02T01:35:08;25.50;;;15.17;;
980;SDS011;479;53.514;9.994;2024-03-02T01:37:35;28.07;;;14.47;;
980;SDS011;479;53.514;9.994;2024-03-02T01:40:02;27.87;;;15.30;;
980;SDS011;479;53.514;9.994;2024-03-02T01:42:35;31.10;;;15.50;;
980;SDS011;479;53.514;9.994;2024-03-02T01:45:04;29.10;;;16.37;;
980;SDS011;479;53.514;9.994;2024-03-02T01:47:31;25.00;;;14.43;;
980;SDS011;479;53.514;9.994;2024-03-02T01:49:59;23.53;;;15.03;;
980;SDS011;479;53.514;9.994;2024-03-02T01:52:27;23.57;;;15.00;;
980;SDS011;479;53.514;9.994;2024-03-02T01:54:54;28.13;;;14.47;;
980;SDS011;479;53.514;9.994;2024-03-02T01:57:21;25.77;;;16.60;;
980;SDS011;479;53.514;9.994;2024-03-02T01:59:50;22.30;;;13.47;;
980;SDS011;479;53.514;9.994;2024-03-02T02:02:18;23.83;;;14.13;;
980;SDS011;479;53.514;9.994;2024-03-02T02:04:45;24.90;;;13.67;;
980;SDS011;479;53.514;9.994;2024-03-02T02:07:12;30.53;;;14.80;;
980;SDS011;479;53.514;9.994;2024-03-02T02:09:40;27.40;;;15.87;;
980;SDS011;479;53.514;9.994;2024-03-02T02:12:07;27.03;;;16.10;;
980;SDS011;479;53.514;9.994;2024-03-02T02:14:35;24.00;;;14.20;;
980;SDS011;479;53.514;9.994;2024-03-02T02:17:04;23.77;;;13.63;;
980;SDS011;479;53.514;9.994;2024-03-02T02:19:31;25.13;;;15.87;;
980;SDS011;479;53.514;9.994;2024-03-02T02:21:59;26.47;;;14.70;;
980;SDS011;479;53.514;9.994;2024-03-02T02:24:26;26.13;;;14.03;;
980;SDS011;479;53.514;9.994;2024-03-02T02:26:52;25.07;;;15.67;;
980;SDS011;479;53.514;9.994;2024-03-02T02:29:19;24.20;;;12.90;;
980;SDS011;479;53.514;9.994;2024-03-02T02:31:46;28.90;;;15.80;;
980;SDS011;479;53.514;9.994;2024-03-02T02:34:14;23.30;;;13.40;;
980;SDS011;479;53.514;9.994;2024-03-02T02:36:41;19.60;;;14.10;;
980;SDS011;479;53.514;9.994;2024-03-02T02:39:11;26.77;;;14.90;;
980;SDS011;479;53.514;9.994;2024-03-02T02:41:40;30.07;;;15.20;;
980;SDS011;479;53.514;9.994;2024-03-02T02:44:06;26.33;;;13.47;;
980;SDS011;479;53.514;9.994;2024-03-02T02:46:33;24.90;;;14.43;;
980;SDS011;479;53.514;9.994;2024-03-02T02:49:00;28.47;;;14.80;;
980;SDS011;479;53.514;9.994;2024-03-02T02:51:27;24.67;;;15.40;;
980;SDS011;479;53.514;9.994;2024-03-02T02:53:54;28.13;;;14.90;;
980;SDS011;479;53.514;9.994;2024-03-02T02:56:22;22.33;;;12.70;;
980;SDS011;479;53.514;9.994;2024-03-02T02:58:49;28.73;;;14.95;;
980;SDS011;479;53.514;9.994;2024-03-02T03:01:16;27.63;;;15.90;;
980;SDS011;479;53.514;9.994;2024-03-02T03:03:43;23.43;;;15.10;;
980;SDS011;479;53.514;9.994;2024-03-02T03:06:10;23.90;;;15.17;;
980;SDS011;479;53.514;9.994;2024-03-02T03:08:37;22.47;;;13.77;;
980;SDS011;479;53.514;9.994;2024-03-02T03:11:04;26.77;;;13.37;;
980;SDS011;479;53.514;9.994;2024-03-02T03:13:33;19.30;;;12.03;;
980;SDS011;479;53.514;9.994;2024-03-02T03:16:00;25.30;;;13.37;;
980;SDS011;479;53.514;9.994;2024-03-02T03:18:28;24.70;;;15.00;;
980;SDS011;479;53.514;9.994;2024-03-02T03:20:55;25.43;;;14.80;;
980;SDS011;479;53.514;9.994;2024-03-02T03:23:22;25.97;;;15.87;;
980;SDS011;479;53.514;9.994;2024-03-02T03:25:48;26.33;;;15.00;;
980;SDS011;479;53.514;9.994;2024-03-02T03:28:15;21.83;;;13.73;;
980;SDS011;479;53.514;9.994;2024-03-02T03:30:44;23.00;;;13.33;;
980;SDS011;479;53.514;9.994;2024-03-02T03:33:11;25.77;;;15.97;;
980;SDS011;479;53.514;9.994;2024-03-02T03:35:38;25.53;;;13.57;;
980;SDS011;479;53.514;9.994;2024-03-02T03:38:05;23.40;;;14.37;;
980;SDS011;479;53.514;9.994;2024-03-02T03:40:32;19.03;;;13.53;;
980;SDS011;479;53.514;9.994;2024-03-02T03:42:59;24.17;;;14.00;;
980;SDS011;479;53.514;9.994;2024-03-02T03:45:26;20.23;;;13.37;;
980;SDS011;479;53.514;9.994;2024-03-02T03:47:54;23.50;;;14.33;;
980;SDS011;479;53.514;9.994;2024-03-02T03:50:21;25.73;;;15.80;;
980;SDS011;479;53.514;9.994;2024-03-02T03:52:48;22.77;;;14.27;;
980;SDS011;479;53.514;9.994;2024-03-02T03:55:15;26.33;;;13.80;;
980;SDS011;479;53.514;9.994;2024-03-02T03:57:42;26.97;;;14.50;;
980;SDS011;479;53.514;9.994;2024-03-02T04:00:09;18.27;;;11.33;;
980;SDS011;479;53.514;9.994;2024-03-02T04:02:40;23.53;;;13.00;;
980;SDS011;479;53.514;9.994;2024-03-02T04:05:08;25.23;;;14.20;;
980;SDS011;479;53.514;9.994;2024-03-02T04:07:36;27.50;;;13.90;;
980;SDS011;479;53.514;9.994;2024-03-02T04:10:06;22.23;;;15.90;;
980;SDS011;479;53.514;9.994;2024-03-02T04:12:34;23.60;;;14.10;;
980;SDS011;479;53.514;9.994;2024-03-02T04:15:02;27.33;;;14.40;;
980;SDS011;479;53.514;9.994;2024-03-02T04:17:31;22.10;;;13.87;;
980;SDS011;479;53.514;9.994;2024-03-02T04:19:58;23.97;;;14.20;;
980;SDS011;479;53.514;9.994;2024-03-02T04:22:27;23.60;;;15.40;;
980;SDS011;479;53.514;9.994;2024-03-02T04:24:54;24.87;;;15.20;;
980;SDS011;479;53.514;9.994;2024-03-02T04:27:21;24.90;;;13.17;;
980;SDS011;479;53.514;9.994;2024-03-02T04:29:48;30.37;;;16.43;;
980;SDS011;479;53.514;9.994;2024-03-02T04:32:14;21.33;;;13.30;;
980;SDS011;479;53.514;9.994;2024-03-02T04:34:41;21.80;;;13.47;;
980;SDS011;479;53.514;9.994;2024-03-02T04:37:09;22.07;;;13.33;;
980;SDS011;479;53.514;9.994;2024-03-02T04:39:39;25.00;;;15.67;;
980;SDS011;479;53.514;9.994;2024-03-02T04:42:05;21.43;;;13.43;;
980;SDS011;479;53.514;9.994;2024-03-02T04:44:32;22.38;;;14.32;;
980;SDS011;479;53.514;9.994;2024-03-02T04:46:59;23.27;;;12.50;;
980;SDS011;479;53.514;9.994;2024-03-02T04:49:26;31.07;;;15.97;;
980;SDS011;479;53.514;9.994;2024-03-02T04:51:53;29.23;;;16.87;;
980;SDS011;479;53.514;9.994;2024-03-02T04:54:20;32.23;;;15.47;;
980;SDS011;479;53.514;9.994;2024-03-02T04:56:48;25.40;;;15.40;;
980;SDS011;479;53.514;9.994;2024-03-02T04:59:15;23.20;;;13.70;;
980;SDS011;479;53.514;9.994;2024-03-02T05:01:43;22.30;;;13.20;;
980;SDS011;479;53.514;9.994;2024-03-02T05:04:10;21.23;;;15.10;;
980;SDS011;479;53.514;9.994;2024-03-02T05:06:38;22.90;;;14.30;;
980;SDS011;479;53.514;9.994;2024-03-02T05:09:05;26.10;;;15.00;;
980;SDS011;479;53.514;9.994;2024-03-02T05:11:32;22.80;;;14.03;;
980;SDS011;479;53.514;9.994;2024-03-02T05:14:22;24.40;;;13.77;;
980;SDS011;479;53.514;9.994;2024-03-02T05:16:48;22.40;;;13.83;;
980;SDS011;479;53.514;9.994;2024-03-02T05:19:15;24.60;;;14.40;;
980;SDS011;479;53.514;9.994;2024-03-02T05:21:42;21.10;;;13.70;;
980;SDS011;479;53.514;9.994;2024-03-02T05:24:09;21.05;;;12.70;;
980;SDS011;479;53.514;9.994;2024-03-02T05:26:36;17.55;;;11.43;;
980;SDS011;479;53.514;9.994;2024-03-02T05:29:03;25.67;;;15.50;;
980;SDS011;479;53.514;9.994;2024-03-02T05:31:31;21.80;;;14.37;;
980;SDS011;479;53.514;9.994;2024-03-02T05:34:01;22.77;;;13.23;;
980;SDS011;479;53.514;9.994;2024-03-02T05:36:28;23.87;;;14.83;;
980;SDS011;479;53.514;9.994;2024-03-02T05:38:54;23.80;;;14.50;;
980;SDS011;479;53.514;9.994;2024-03-02T05:41:21;23.08;;;13.77;;
980;SDS011;479;53.514;9.994;2024-03-02T05:43:48;21.63;;;13.00;;
980;SDS011;479;53.514;9.994;2024-03-02T05:46:15;22.47;;;14.87;;
980;SDS011;479;53.514;9.994;2024-03-02T05:48:43;21.58;;;14.02;;
980;SDS011;479;53.514;9.994;2024-03-02T05:51:10;22.60;;;13.37;;
980;SDS011;479;53.514;9.994;2024-03-02T05:53:37;17.57;;;11.23;;
980;SDS011;479;53.514;9.994;2024-03-02T05:56:04;21.20;;;13.53;;
980;SDS011;479;53.514;9.994;2024-03-02T05:58:31;23.37;;;15.07;;
980;SDS011;479;53.514;9.994;2024-03-02T06:01:11;26.50;;;13.70;;
980;SDS011;479;53.514;9.994;2024-03-02T06:03:38;21.87;;;14.47;;
980;SDS011;479;53.514;9.994;2024-03-02T06:06:06;28.73;;;14.30;;
980;SDS011;479;53.514;9.994;2024-03-02T06:08:33;18.40;;;12.27;;
980;SDS011;479;53.514;9.994;2024-03-02T06:11:00;23.67;;;14.00;;
980;SDS011;479;53.514;9.994;2024-03-02T06:13:27;23.53;;;12.63;;
980;SDS011;479;53.514;9.994;2024-03-02T06:15:54;21.10;;;13.43;;
980;SDS011;479;53.514;9.994;2024-03-02T06:18:20;24.97;;;13.40;;
980;SDS011;479;53.514;9.994;2024-03-02T06:20:47;22.83;;;13.67;;
980;SDS011;479;53.514;9.994;2024-03-02T06:23:16;24.33;;;14.20;;
980;SDS011;479;53.514;9.994;2024-03-02T06:25:43;21.10;;;14.43;;
980;SDS011;479;53.514;9.994;2024-03-02T06:28:10;22.53;;;14.13;;
980;SDS011;479;53.514;9.994;2024-03-02T06:30:37;19.80;;;12.53;;
980;SDS011;479;53.514;9.994;2024-03-02T06:33:04;24.50;;;13.10;;
980;SDS011;479;53.514;9.994;2024-03-02T06:35:31;24.98;;;14.95;;
980;SDS011;479;53.514;9.994;2024-03-02T06:37:58;23.08;;;14.70;;
980;SDS011;479;53.514;9.994;2024-03-02T06:40:26;17.67;;;11.70;;
980;SDS011;479;53.514;9.994;2024-03-02T06:42:53;18.98;;;11.88;;
980;SDS011;479;53.514;9.994;2024-03-02T06:45:20;20.73;;;13.55;;
980;SDS011;479;53.514;9.994;2024-03-02T06:47:47;19.70;;;12.97;;
980;SDS011;479;53.514;9.994;2024-03-02T06:50:16;26.03;;;15.33;;
980;SDS011;479;53.514;9.994;2024-03-02T06:52:42;25.87;;;13.50;;
980;SDS011;479;53.514;9.994;2024-03-02T06:55:09;23.83;;;12.63;;
980;SDS011;479;53.514;9.994;2024-03-02T06:57:38;21.97;;;13.60;;
980;SDS011;479;53.514;9.994;2024-03-02T07:00:07;19.48;;;12.40;;
980;SDS011;479;53.514;9.994;2024-03-02T07:02:38;16.97;;;11.20;;
980;SDS011;479;53.514;9.994;2024-03-02T07:05:06;21.05;;;12.50;;
980;SDS011;479;53.514;9.994;2024-03-02T07:07:34;22.63;;;14.07;;
980;SDS011;479;53.514;9.994;2024-03-02T07:10:02;21.77;;;12.83;;
980;SDS011;479;53.514;9.994;2024-03-02T07:12:29;21.40;;;12.43;;
980;SDS011;479;53.514;9.994;2024-03-02T07:14:58;22.77;;;13.70;;
980;SDS011;479;53.514;9.994;2024-03-02T07:17:42;21.37;;;13.33;;
980;SDS011;479;53.514;9.994;2024-03-02T07:20:09;18.70;;;12.60;;
980;SDS011;479;53.514;9.994;2024-03-02T07:22:38;21.53;;;14.40;;
980;SDS011;479;53.514;9.994;2024-03-02T07:25:10;22.30;;;13.53;;
980;SDS011;479;53.514;9.994;2024-03-02T07:27:37;22.27;;;14.63;;
980;SDS011;479;53.514;9.994;2024-03-02T07:30:06;22.70;;;13.57;;
980;SDS011;479;53.514;9.994;2024-03-02T07:32:34;23.40;;;13.07;;
980;SDS011;479;53.514;9.994;2024-03-02T07:35:01;25.17;;;14.60;;
980;SDS011;479;53.514;9.994;2024-03-02T07:37:28;24.77;;;14.97;;
980;SDS011;479;53.514;9.994;2024-03-02T07:39:55;20.43;;;13.30;;
980;SDS011;479;53.514;9.994;2024-03-02T07:42:22;22.80;;;13.60;;
980;SDS011;479;53.514;9.994;2024-03-02T07:44:49;21.30;;;14.67;;
980;SDS011;479;53.514;9.994;2024-03-02T07:47:18;18.77;;;11.73;;
980;SDS011;479;53.514;9.994;2024-03-02T07:49:45;20.23;;;13.33;;
980;SDS011;479;53.514;9.994;2024-03-02T07:52:12;22.60;;;13.10;;
980;SDS011;479;53.514;9.994;2024-03-02T07:54:39;18.70;;;11.97;;
980;SDS011;479;53.514;9.994;2024-03-02T07:57:06;20.23;;;13.73;;
980;SDS011;479;53.514;9.994;2024-03-02T07:59:33;22.83;;;14.00;;
980;SDS011;479;53.514;9.994;2024-03-02T08:02:03;20.33;;;14.30;;
980;SDS011;479;53.514;9.994;2024-03-02T08:04:32;20.93;;;13.83;;
980;SDS011;479;53.514;9.994;2024-03-02T08:06:59;21.70;;;13.30;;
980;SDS011;479;53.514;9.994;2024-03-02T08:09:26;20.97;;;13.40;;
980;SDS011;479;53.514;9.994;2024-03-02T08:11:53;18.27;;;13.40;;
980;SDS011;479;53.514;9.994;2024-03-02T08:14:19;23.23;;;13.20;;
980;SDS011;479;53.514;9.994;2024-03-02T08:16:46;19.67;;;13.67;;
980;SDS011;479;53.514;9.994;2024-03-02T08:19:13;19.10;;;13.40;;
980;SDS011;479;53.514;9.994;2024-03-02T08:21:42;25.23;;;14.53;;
980;SDS011;479;53.514;9.994;2024-03-02T08:24:09;21.80;;;13.83;;
980;SDS011;479;53.514;9.994;2024-03-02T08:26:36;16.90;;;12.60;;
980;SDS011;479;53.514;9.994;2024-03-02T08:29:03;17.87;;;11.97;;
980;SDS011;479;53.514;9.994;2024-03-02T08:31:30;22.67;;;14.60;;
980;SDS011;479;53.514;9.994;2024-03-02T08:33:57;20.03;;;12.00;;
980;SDS011;479;53.514;9.994;2024-03-02T08:36:24;19.40;;;13.20;;
980;SDS011;479;53.514;9.994;2024-03-02T08:38:52;19.70;;;12.67;;
980;SDS011;479;53.514;9.994;2024-03-02T08:41:19;18.40;;;13.10;;
980;SDS011;479;53.514;9.994;2024-03-02T08:43:46;23.93;;;13.67;;
980;SDS011;479;53.514;9.994;2024-03-02T08:46:13;19.33;;;11.97;;
980;SDS011;479;53.514;9.994;2024-03-02T08:48:40;18.83;;;10.83;;
980;SDS011;479;53.514;9.994;2024-03-02T08:51:07;20.50;;;12.73;;
980;SDS011;479;53.514;9.994;2024-03-02T08:53:35;17.87;;;11.67;;
980;SDS011;479;53.514;9.994;2024-03-02T08:56:04;21.10;;;14.10;;
980;SDS011;479;53.514;9.994;2024-03-02T08:58:31;23.20;;;13.33;;
980;SDS011;479;53.514;9.994;2024-03-02T09:00:58;20.10;;;13.43;;
980;SDS011;479;53.514;9.994;2024-03-02T09:03:25;21.80;;;14.87;;
980;SDS011;479;53.514;9.994;2024-03-02T09:05:52;18.30;;;13.30;;
980;SDS011;479;53.514;9.994;2024-03-02T09:08:19;15.53;;;11.40;;
980;SDS011;479;53.514;9.994;2024-03-02T09:10:46;19.03;;;12.93;;
980;SDS011;479;53.514;9.994;2024-03-02T09:13:14;18.47;;;12.63;;
980;SDS011;479;53.514;9.994;2024-03-02T09:15:41;21.33;;;15.43;;
980;SDS011;479;53.514;9.994;2024-03-02T09:18:09;20.90;;;13.43;;
980;SDS011;479;53.514;9.994;2024-03-02T09:20:36;17.43;;;12.30;;
980;SDS011;479;53.514;9.994;2024-03-02T09:23:03;23.63;;;14.50;;
980;SDS011;479;53.514;9.994;2024-03-02T09:25:30;18.57;;;13.87;;
980;SDS011;479;53.514;9.994;2024-03-02T09:27:57;23.60;;;14.30;;
980;SDS011;479;53.514;9.994;2024-03-02T09:30:25;21.83;;;13.80;;
980;SDS011;479;53.514;9.994;2024-03-02T09:32:52;19.50;;;12.57;;
980;SDS011;479;53.514;9.994;2024-03-02T09:35:19;16.67;;;12.03;;
980;SDS011;479;53.514;9.994;2024-03-02T09:37:46;17.00;;;11.63;;
980;SDS011;479;53.514;9.994;2024-03-02T09:40:13;15.30;;;12.03;;
980;SDS011;479;53.514;9.994;2024-03-02T09:42:41;14.90;;;10.77;;
980;SDS011;479;53.514;9.994;2024-03-02T09:45:09;19.40;;;11.80;;
980;SDS011;479;53.514;9.994;2024-03-02T09:47:37;17.93;;;11.40;;
980;SDS011;479;53.514;9.994;2024-03-02T09:50:05;16.20;;;11.77;;
980;SDS011;479;53.514;9.994;2024-03-02T09:52:32;15.47;;;11.20;;
980;SDS011;479;53.514;9.994;2024-03-02T09:55:01;16.60;;;12.90;;
980;SDS011;479;53.514;9.994;2024-03-02T09:57:30;14.60;;;11.23;;
980;SDS011;479;53.514;9.994;2024-03-02T09:59:57;17.03;;;12.50;;
980;SDS011;479;53.514;9.994;2024-03-02T10:02:24;19.43;;;12.90;;
980;SDS011;479;53.514;9.994;2024-03-02T10:04:52;13.07;;;11.77;;
980;SDS011;479;53.514;9.994;2024-03-02T10:07:19;14.03;;;10.87;;
980;SDS011;479;53.514;9.994;2024-03-02T10:09:46;14.57;;;10.80;;
980;SDS011;479;53.514;9.994;2024-03-02T10:12:14;15.53;;;11.30;;
980;SDS011;479;53.514;9.994;2024-03-02T10:14:42;17.20;;;11.67;;
980;SDS011;479;53.514;9.994;2024-03-02T10:17:11;12.40;;;9.97;;
980;SDS011;479;53.514;9.994;2024-03-02T10:19:39;12.90;;;10.00;;
980;SDS011;479;53.514;9.994;2024-03-02T10:22:07;13.83;;;10.60;;
980;SDS011;479;53.514;9.994;2024-03-02T10:24:36;12.63;;;9.47;;
980;SDS011;479;53.514;9.994;2024-03-02T10:27:07;46.60;;;33.57;;
980;SDS011;479;53.514;9.994;2024-03-02T10:29:38;11.60;;;9.33;;
980;SDS011;479;53.514;9.994;2024-03-02T10:32:08;12.17;;;9.40;;
980;SDS011;479;53.514;9.994;2024-03-02T10:34:36;11.17;;;8.67;;
980;SDS011;479;53.514;9.994;2024-03-02T10:37:05;13.13;;;10.20;;
980;SDS011;479;53.514;9.994;2024-03-02T10:39:33;15.40;;;10.50;;
980;SDS011;479;53.514;9.994;2024-03-02T10:42:02;34.13;;;25.00;;
980;SDS011;479;53.514;9.994;2024-03-02T10:44:30;14.10;;;9.33;;
980;SDS011;479;53.514;9.994;2024-03-02T10:46:57;11.53;;;8.43;;
980;SDS011;479;53.514;9.994;2024-03-02T10:49:27;11.43;;;8.23;;
980;SDS011;479;53.514;9.994;2024-03-02T10:51:55;9.70;;;7.83;;
980;SDS011;479;53.514;9.994;2024-03-02T10:54:22;10.27;;;8.07;;
980;SDS011;479;53.514;9.994;2024-03-02T10:56:53;10.10;;;7.90;;
980;SDS011;479;53.514;9.994;2024-03-02T10:59:26;7.93;;;7.13;;
980;SDS011;479;53.514;9.994;2024-03-02T11:01:55;9.57;;;7.93;;
980;SDS011;479;53.514;9.994;2024-03-02T11:04:24;12.37;;;6.30;;
980;SDS011;479;53.514;9.994;2024-03-02T11:06:53;10.17;;;7.60;;
980;SDS011;479;53.514;9.994;2024-03-02T11:09:27;9.50;;;8.00;;
980;SDS011;479;53.514;9.994;2024-03-02T11:12:02;7.53;;;6.73;;
980;SDS011;479;53.514;9.994;2024-03-02T11:14:32;9.50;;;7.33;;
980;SDS011;479;53.514;9.994;2024-03-02T11:17:01;10.20;;;7.00;;
980;SDS011;479;53.514;9.994;2024-03-02T11:19:31;8.10;;;6.23;;
980;SDS011;479;53.514;9.994;2024-03-02T11:21:59;9.23;;;6.73;;
980;SDS011;479;53.514;9.994;2024-03-02T11:24:32;8.80;;;7.27;;
980;SDS011;479;53.514;9.994;2024-03-02T11:27:01;10.83;;;6.93;;
980;SDS011;479;53.514;9.994;2024-03-02T11:29:47;8.93;;;7.17;;
980;SDS011;479;53.514;9.994;2024-03-02T11:32:21;12.90;;;7.90;;
980;SDS011;479;53.514;9.994;2024-03-02T11:34:51;9.10;;;6.97;;
980;SDS011;479;53.514;9.994;2024-03-02T11:37:22;9.70;;;7.40;;
980;SDS011;479;53.514;9.994;2024-03-02T11:39:50;8.93;;;7.40;;
980;SDS011;479;53.514;9.994;2024-03-02T11:42:19;8.70;;;6.63;;
980;SDS011;479;53.514;9.994;2024-03-02T11:44:46;8.70;;;6.20;;
980;SDS011;479;53.514;9.994;2024-03-02T11:47:17;8.67;;;7.10;;
980;SDS011;479;53.514;9.994;2024-03-02T11:49:44;7.30;;;5.80;;
980;SDS011;479;53.514;9.994;2024-03-02T11:52:15;7.03;;;5.80;;
980;SDS011;479;53.514;9.994;2024-03-02T11:54:43;8.50;;;6.33;;
980;SDS011;479;53.514;9.994;2024-03-02T11:57:16;7.63;;;6.40;;
980;SDS011;479;53.514;9.994;2024-03-02T12:00:00;8.40;;;6.33;;
980;SDS011;479;53.514;9.994;2024-03-02T12:02:30;9.03;;;7.03;;
980;SDS011;479;53.514;9.994;2024-03-02T12:04:58;8.70;;;7.80;;
980;SDS011;479;53.514;9.994;2024-03-02T12:07:25;8.93;;;6.90;;
980;SDS011;479;53.514;9.994;2024-03-02T12:09:59;7.50;;;5.87;;
980;SDS011;479;53.514;9.994;2024-03-02T12:12:27;9.73;;;7.30;;
980;SDS011;479;53.514;9.994;2024-03-02T12:15:02;11.00;;;7.30;;
980;SDS011;479;53.514;9.994;2024-03-02T12:17:29;9.13;;;6.63;;
980;SDS011;479;53.514;9.994;2024-03-02T12:19:57;7.80;;;6.50;;
980;SDS011;479;53.514;9.994;2024-03-02T12:22:24;8.50;;;5.67;;
980;SDS011;479;53.514;9.994;2024-03-02T12:24:54;8.23;;;6.20;;
980;SDS011;479;53.514;9.994;2024-03-02T12:27:21;8.77;;;6.60;;
980;SDS011;479;53.514;9.994;2024-03-02T12:29:48;8.30;;;6.20;;
980;SDS011;479;53.514;9.994;2024-03-02T12:32:17;9.20;;;5.90;;
980;SDS011;479;53.514;9.994;2024-03-02T12:34:46;6.53;;;5.83;;
980;SDS011;479;53.514;9.994;2024-03-02T12:37:13;6.70;;;5.47;;
980;SDS011;479;53.514;9.994;2024-03-02T12:39:42;7.00;;;5.20;;
980;SDS011;479;53.514;9.994;2024-03-02T12:42:11;7.53;;;6.17;;
980;SDS011;479;53.514;9.994;2024-03-02T12:44:39;8.10;;;6.20;;
980;SDS011;479;53.514;9.994;2024-03-02T12:47:11;6.80;;;4.90;;
980;SDS011;479;53.514;9.994;2024-03-02T12:49:45;6.20;;;5.27;;
980;SDS011;479;53.514;9.994;2024-03-02T12:52:12;5.93;;;5.40;;
980;SDS011;479;53.514;9.994;2024-03-02T12:54:39;7.53;;;5.43;;
980;SDS011;479;53.514;9.994;2024-03-02T12:57:09;9.13;;;7.70;;
980;SDS011;479;53.514;9.994;2024-03-02T12:59:36;7.63;;;6.70;;
980;SDS011;479;53.514;9.994;2024-03-02T13:02:16;10.43;;;7.10;;
980;SDS011;479;53.514;9.994;2024-03-02T13:04:50;8.77;;;7.00;;
980;SDS011;479;53.514;9.994;2024-03-02T13:07:19;10.03;;;7.13;;
980;SDS011;479;53.514;9.994;2024-03-02T13:09:47;7.40;;;6.33;;
980;SDS011;479;53.514;9.994;2024-03-02T13:12:18;10.77;;;7.30;;
980;SDS011;479;53.514;9.994;2024-03-02T13:14:47;7.30;;;6.60;;
980;SDS011;479;53.514;9.994;2024-03-02T13:17:17;11.67;;;7.50;;
980;SDS011;479;53.514;9.994;2024-03-02T13:19:54;9.13;;;6.50;;
980;SDS011;479;53.514;9.994;2024-03-02T13:22:22;11.00;;;7.80;;
980;SDS011;479;53.514;9.994;2024-03-02T13:24:50;7.20;;;5.80;;
980;SDS011;479;53.514;9.994;2024-03-02T13:27:17;9.57;;;7.20;;
980;SDS011;479;53.514;9.994;2024-03-02T13:29:45;8.70;;;6.50;;
980;SDS011;479;53.514;9.994;2024-03-02T13:32:13;7.50;;;5.43;;
980;SDS011;479;53.514;9.994;2024-03-02T13:34:40;9.60;;;7.80;;
980;SDS011;479;53.514;9.994;2024-03-02T13:37:09;7.50;;;6.70;;
980;SDS011;479;53.514;9.994;2024-03-02T13:39:36;9.93;;;7.00;;
980;SDS011;479;53.514;9.994;2024-03-02T13:42:07;11.60;;;6.87;;
980;SDS011;479;53.514;9.994;2024-03-02T13:44:36;10.10;;;7.70;;
980;SDS011;479;53.514;9.994;2024-03-02T13:47:03;12.00;;;9.50;;
980;SDS011;479;53.514;9.994;2024-03-02T13:49:31;8.63;;;7.07;;
980;SDS011;479;53.514;9.994;2024-03-02T13:52:02;9.53;;;7.70;;
980;SDS011;479;53.514;9.994;2024-03-02T13:54:40;10.37;;;8.00;;
980;SDS011;479;53.514;9.994;2024-03-02T13:57:10;12.10;;;7.87;;
980;SDS011;479;53.514;9.994;2024-03-02T13:59:41;10.73;;;7.60;;
980;SDS011;479;53.514;9.994;2024-03-02T14:02:08;9.20;;;7.27;;
980;SDS011;479;53.514;9.994;2024-03-02T14:04:36;10.20;;;6.90;;
980;SDS011;479;53.514;9.994;2024-03-02T14:07:04;10.23;;;7.63;;
980;SDS011;479;53.514;9.994;2024-03-02T14:09:32;10.10;;;6.97;;
980;SDS011;479;53.514;9.994;2024-03-02T14:12:00;9.97;;;7.40;;
980;SDS011;479;53.514;9.994;2024-03-02T14:14:27;9.80;;;6.73;;
980;SDS011;479;53.514;9.994;2024-03-02T14:16:54;8.87;;;7.60;;
980;SDS011;479;53.514;9.994;2024-03-02T14:19:25;9.87;;;7.87;;
980;SDS011;479;53.514;9.994;2024-03-02T14:21:52;7.70;;;6.30;;
980;SDS011;479;53.514;9.994;2024-03-02T14:24:19;11.90;;;8.10;;
980;SDS011;479;53.514;9.994;2024-03-02T14:26:49;8.60;;;6.27;;
980;SDS011;479;53.514;9.994;2024-03-02T14:29:17;9.30;;;7.07;;
980;SDS011;479;53.514;9.994;2024-03-02T14:31:44;8.47;;;7.30;;
980;SDS011;479;53.514;9.994;2024-03-02T14:34:13;8.63;;;6.37;;
980;SDS011;479;53.514;9.994;2024-03-02T14:36:40;8.80;;;5.93;;
980;SDS011;479;53.514;9.994;2024-03-02T14:39:08;5.53;;;5.00;;
980;SDS011;479;53.514;9.994;2024-03-02T14:41:36;9.37;;;6.10;;
980;SDS011;479;53.514;9.994;2024-03-02T14:44:03;6.70;;;5.43;;
980;SDS011;479;53.514;9.994;2024-03-02T14:46:31;8.80;;;5.73;;
980;SDS011;479;53.514;9.994;2024-03-02T14:48:58;7.90;;;5.10;;
980;SDS011;479;53.514;9.994;2024-03-02T14:51:25;10.50;;;6.90;;
980;SDS011;479;53.514;9.994;2024-03-02T14:53:52;6.27;;;5.67;;
980;SDS011;479;53.514;9.994;2024-03-02T14:56:19;5.87;;;5.10;;
980;SDS011;479;53.514;9.994;2024-03-02T14:58:46;7.50;;;5.70;;
980;SDS011;479;53.514;9.994;2024-03-02T15:01:13;7.50;;;5.83;;
980;SDS011;479;53.514;9.994;2024-03-02T15:03:42;7.87;;;6.37;;
980;SDS011;479;53.514;9.994;2024-03-02T15:06:09;6.50;;;5.27;;
980;SDS011;479;53.514;9.994;2024-03-02T15:08:36;7.57;;;6.53;;
980;SDS011;479;53.514;9.994;2024-03-02T15:11:03;6.67;;;5.70;;
980;SDS011;479;53.514;9.994;2024-03-02T15:13:32;6.60;;;4.70;;
980;SDS011;479;53.514;9.994;2024-03-02T15:15:59;11.83;;;7.50;;
980;SDS011;479;53.514;9.994;2024-03-02T15:18:26;7.30;;;5.30;;
980;SDS011;479;53.514;9.994;2024-03-02T15:20:55;8.97;;;6.27;;
980;SDS011;479;53.514;9.994;2024-03-02T15:23:22;9.43;;;6.27;;
980;SDS011;479;53.514;9.994;2024-03-02T15:25:49;9.03;;;7.17;;
980;SDS011;479;53.514;9.994;2024-03-02T15:28:17;10.37;;;8.00;;